createdAt,value
2018-09-18T00:01:09.723Z,16.20
2018-09-18T00:03:37.270Z,16.20
2018-09-18T00:06:04.831Z,16.20
2018-09-18T00:08:32.333Z,16.30
2018-09-18T00:10:59.927Z,16.20
2018-09-18T00:13:27.424Z,16.20
2018-09-18T00:15:54.907Z,16.20
2018-09-18T00:18:22.362Z,16.10
2018-09-18T00:20:49.996Z,16.10
2018-09-18T00:23:17.419Z,16.00
2018-09-18T00:25:44.896Z,16.10
2018-09-18T00:28:12.336Z,16.00
2018-09-18T00:30:39.816Z,16.00
2018-09-18T00:33:07.250Z,16.10
2018-09-18T00:35:34.724Z,15.90
2018-09-18T00:38:02.347Z,15.90
2018-09-18T00:40:29.801Z,15.90
2018-09-18T00:42:57.268Z,15.90
2018-09-18T00:45:24.704Z,15.80
2018-09-18T00:47:52.193Z,15.80
2018-09-18T00:50:19.696Z,15.80
2018-09-18T00:52:47.181Z,15.80
2018-09-18T00:55:14.618Z,15.70
2018-09-18T00:57:42.152Z,15.70
2018-09-18T01:00:10.455Z,15.70
2018-09-18T01:02:37.957Z,15.60
2018-09-18T01:05:05.420Z,15.60
2018-09-18T01:07:32.975Z,15.60
2018-09-18T01:10:01.031Z,15.60
2018-09-18T01:12:28.579Z,15.60
2018-09-18T01:14:56.061Z,15.50
2018-09-18T01:17:23.535Z,15.50
2018-09-18T01:19:50.981Z,15.50
2018-09-18T01:22:18.450Z,15.50
2018-09-18T01:24:45.890Z,15.50
2018-09-18T01:27:13.372Z,15.50
2018-09-18T01:29:40.808Z,15.50
2018-09-18T01:32:08.269Z,15.50
2018-09-18T01:34:35.790Z,15.40
2018-09-18T01:37:03.318Z,15.40
2018-09-18T01:39:30.854Z,15.40
2018-09-18T01:41:58.442Z,15.30
2018-09-18T01:44:25.865Z,15.40
2018-09-18T01:46:53.325Z,15.30
2018-09-18T01:49:20.751Z,15.30
2018-09-18T01:51:48.228Z,15.30
2018-09-18T01:54:15.656Z,15.30
2018-09-18T01:56:43.184Z,15.30
2018-09-18T01:59:10.675Z,15.30
2018-09-18T02:01:38.224Z,15.20
2018-09-18T02:04:05.709Z,15.20
2018-09-18T02:06:33.148Z,15.20
2018-09-18T02:09:00.933Z,15.20
2018-09-18T02:11:28.418Z,15.30
2018-09-18T02:13:55.879Z,15.30
2018-09-18T02:16:23.304Z,15.30
2018-09-18T02:18:50.782Z,15.40
2018-09-18T02:21:18.287Z,15.40
2018-09-18T02:23:45.752Z,15.40
2018-09-18T02:26:13.177Z,15.40
2018-09-18T02:28:40.679Z,15.40
2018-09-18T02:31:08.125Z,15.40
2018-09-18T02:33:35.590Z,15.30
2018-09-18T02:36:03.230Z,15.30
2018-09-18T02:38:30.709Z,15.20
2018-09-18T02:40:58.247Z,15.30
2018-09-18T02:43:25.818Z,15.20
2018-09-18T02:45:53.256Z,15.10
2018-09-18T02:48:20.719Z,15.20
2018-09-18T02:50:48.188Z,15.10
2018-09-18T02:53:15.657Z,15.10
2018-09-18T02:55:43.087Z,15.10
2018-09-18T02:58:10.556Z,15.20
2018-09-18T03:00:37.989Z,15.10
2018-09-18T03:03:05.490Z,15.00
2018-09-18T03:05:32.937Z,15.00
2018-09-18T03:08:00.424Z,15.00
2018-09-18T03:10:27.861Z,15.00
2018-09-18T03:12:55.340Z,15.00
2018-09-18T03:15:22.787Z,15.40
2018-09-18T03:17:50.287Z,15.40
2018-09-18T03:20:17.732Z,15.40
2018-09-18T03:22:45.212Z,15.40
2018-09-18T03:25:12.673Z,15.40
2018-09-18T03:27:40.237Z,15.40
2018-09-18T03:30:07.770Z,15.40
2018-09-18T03:32:35.453Z,15.30
2018-09-18T03:35:02.986Z,15.30
2018-09-18T03:37:30.468Z,15.20
2018-09-18T03:39:58.028Z,15.10
2018-09-18T03:42:25.455Z,15.10
2018-09-18T03:44:52.940Z,14.90
2018-09-18T03:47:21.126Z,14.90
2018-09-18T03:49:49.325Z,15.00
2018-09-18T03:52:16.764Z,15.00
2018-09-18T03:54:44.237Z,14.80
2018-09-18T03:57:11.762Z,14.80
2018-09-18T03:59:39.220Z,14.80
2018-09-18T04:02:06.692Z,14.70
2018-09-18T04:04:34.161Z,14.60
2018-09-18T04:07:01.698Z,14.50
2018-09-18T04:09:29.176Z,14.50
2018-09-18T04:11:56.612Z,14.70
2018-09-18T04:14:24.068Z,14.60
2018-09-18T04:16:51.618Z,14.70
2018-09-18T04:19:19.086Z,14.70
2018-09-18T04:21:46.535Z,14.60
2018-09-18T04:24:13.988Z,14.70
2018-09-18T04:26:41.637Z,14.80
2018-09-18T04:29:09.748Z,14.60
2018-09-18T04:31:38.551Z,14.50
2018-09-18T04:34:06.091Z,14.50
2018-09-18T04:36:33.549Z,14.40
2018-09-18T04:39:01.345Z,14.40
2018-09-18T04:41:28.846Z,14.40
2018-09-18T04:43:56.311Z,14.40
2018-09-18T04:46:23.916Z,14.40
2018-09-18T04:48:51.507Z,14.50
2018-09-18T04:51:18.948Z,14.40
2018-09-18T04:53:46.576Z,14.40
2018-09-18T04:56:14.030Z,14.30
2018-09-18T04:58:41.557Z,14.40
2018-09-18T05:01:09.036Z,14.50
2018-09-18T05:03:36.484Z,14.60
2018-09-18T05:06:04.028Z,14.60
2018-09-18T05:08:31.697Z,14.60
2018-09-18T05:10:59.182Z,14.60
2018-09-18T05:13:26.707Z,14.60
2018-09-18T05:15:54.172Z,14.70
2018-09-18T05:18:21.602Z,14.60
2018-09-18T05:20:49.076Z,14.60
2018-09-18T05:23:16.503Z,14.50
2018-09-18T05:25:43.963Z,14.60
2018-09-18T05:28:11.549Z,14.60
2018-09-18T05:30:39.108Z,14.80
2018-09-18T05:33:06.613Z,14.80
2018-09-18T05:35:34.330Z,14.90
2018-09-18T05:38:01.797Z,15.00
2018-09-18T05:40:29.260Z,15.10
2018-09-18T05:42:56.713Z,15.10
2018-09-18T05:45:24.171Z,15.10
2018-09-18T05:47:51.714Z,15.20
2018-09-18T05:50:19.182Z,15.30
2018-09-18T05:52:46.612Z,15.30
2018-09-18T05:55:14.062Z,15.40
2018-09-18T05:57:41.542Z,15.30
2018-09-18T06:00:09.105Z,15.30
2018-09-18T06:02:38.633Z,15.40
2018-09-18T06:05:06.105Z,15.50
2018-09-18T06:07:33.548Z,15.60
2018-09-18T06:10:01.039Z,15.60
2018-09-18T06:12:28.514Z,15.60
2018-09-18T06:14:55.980Z,15.50
2018-09-18T06:17:23.408Z,15.60
2018-09-18T06:19:50.902Z,15.50
2018-09-18T06:22:18.372Z,15.50
2018-09-18T06:24:45.879Z,15.60
2018-09-18T06:27:13.316Z,15.60
2018-09-18T06:29:40.749Z,15.80
2018-09-18T06:32:08.243Z,15.90
2018-09-18T06:34:35.744Z,15.90
2018-09-18T06:37:03.273Z,15.90
2018-09-18T06:39:30.664Z,15.90
2018-09-18T06:41:58.121Z,16.20
2018-09-18T06:44:25.528Z,16.30
2018-09-18T06:46:52.981Z,16.40
2018-09-18T06:49:20.413Z,16.50
2018-09-18T06:51:47.927Z,16.50
2018-09-18T06:54:15.391Z,16.50
2018-09-18T06:56:42.853Z,16.60
2018-09-18T06:59:10.358Z,16.60
2018-09-18T07:01:37.846Z,16.60
2018-09-18T07:04:05.327Z,16.70
2018-09-18T07:06:32.768Z,16.60
2018-09-18T07:09:00.443Z,16.70
2018-09-18T07:11:27.903Z,16.80
2018-09-18T07:13:55.320Z,16.90
2018-09-18T07:16:22.792Z,17.00
2018-09-18T07:18:50.272Z,17.10
2018-09-18T07:21:17.729Z,17.20
2018-09-18T07:23:45.288Z,17.40
2018-09-18T07:26:12.847Z,17.50
2018-09-18T07:28:40.315Z,17.50
2018-09-18T07:31:07.887Z,17.60
2018-09-18T07:33:35.349Z,17.80
2018-09-18T07:36:02.848Z,17.90
2018-09-18T07:38:30.259Z,18.20
2018-09-18T07:40:57.734Z,18.20
2018-09-18T07:43:25.172Z,18.20
2018-09-18T07:45:52.705Z,18.30
2018-09-18T07:48:20.128Z,18.50
2018-09-18T07:50:47.577Z,18.50
2018-09-18T07:53:14.999Z,18.60
2018-09-18T07:55:42.425Z,18.60
2018-09-18T07:58:09.887Z,18.70
2018-09-18T08:00:37.341Z,18.80
2018-09-18T08:03:04.879Z,18.80
2018-09-18T08:05:32.301Z,18.90
2018-09-18T08:07:59.792Z,19.00
2018-09-18T08:10:27.288Z,19.10
2018-09-18T08:12:54.736Z,19.20
2018-09-18T08:15:22.288Z,19.30
2018-09-18T08:17:49.847Z,19.40
2018-09-18T08:20:17.280Z,19.50
2018-09-18T08:22:44.737Z,19.60
2018-09-18T08:25:12.215Z,19.70
2018-09-18T08:27:39.721Z,19.90
2018-09-18T08:30:07.220Z,20.00
2018-09-18T08:32:34.780Z,20.00
2018-09-18T08:35:02.194Z,20.30
2018-09-18T08:37:29.675Z,20.40
2018-09-18T08:39:57.184Z,20.50
2018-09-18T08:42:24.600Z,20.50
2018-09-18T08:44:52.025Z,20.80
2018-09-18T08:47:19.484Z,20.80
2018-09-18T08:49:46.915Z,20.90
2018-09-18T08:52:14.376Z,21.10
2018-09-18T08:54:41.829Z,21.20
2018-09-18T08:57:09.327Z,21.30
2018-09-18T08:59:36.767Z,21.30
2018-09-18T09:02:04.252Z,21.50
2018-09-18T09:04:31.707Z,21.40
2018-09-18T09:06:59.195Z,21.60
2018-09-18T09:09:26.720Z,21.70
2018-09-18T09:11:54.094Z,22.10
2018-09-18T09:14:21.580Z,22.00
2018-09-18T09:16:49.113Z,21.80
2018-09-18T09:19:16.569Z,22.00
2018-09-18T09:21:44.056Z,22.20
2018-09-18T09:24:11.468Z,22.30
2018-09-18T09:26:38.968Z,22.60
2018-09-18T09:29:06.421Z,22.70
2018-09-18T09:31:33.955Z,22.90
2018-09-18T09:34:01.553Z,23.00
2018-09-18T09:36:28.993Z,23.00
2018-09-18T09:38:56.564Z,23.10
2018-09-18T09:41:23.973Z,23.40
2018-09-18T09:43:51.571Z,23.60
2018-09-18T09:46:18.932Z,23.70
2018-09-18T09:48:46.460Z,23.80
2018-09-18T09:51:13.947Z,23.90
2018-09-18T09:53:41.369Z,23.90
2018-09-18T09:56:08.800Z,23.90
2018-09-18T09:58:36.258Z,24.00
2018-09-18T10:01:09.604Z,24.00
2018-09-18T10:03:37.026Z,24.10
2018-09-18T10:06:04.510Z,24.20
2018-09-18T10:08:31.966Z,24.40
2018-09-18T10:10:59.425Z,24.50
2018-09-18T10:13:26.883Z,24.50
2018-09-18T10:15:54.421Z,24.60
2018-09-18T10:18:21.882Z,24.70
2018-09-18T10:20:49.328Z,24.70
2018-09-18T10:23:16.996Z,24.70
2018-09-18T10:25:44.442Z,24.80
2018-09-18T10:28:12.012Z,24.90
2018-09-18T10:30:39.473Z,25.00
2018-09-18T10:33:06.947Z,25.00
2018-09-18T10:35:34.361Z,25.00
2018-09-18T10:38:01.896Z,25.00
2018-09-18T10:40:29.338Z,25.30
2018-09-18T10:42:56.843Z,25.30
2018-09-18T10:45:24.241Z,25.30
2018-09-18T10:47:51.708Z,25.30
2018-09-18T10:50:19.167Z,25.30
2018-09-18T10:52:46.603Z,25.50
2018-09-18T10:55:14.143Z,25.60
2018-09-18T10:57:41.575Z,25.60
2018-09-18T11:00:09.339Z,25.50
2018-09-18T11:02:36.820Z,25.60
2018-09-18T11:05:04.499Z,25.70
2018-09-18T11:07:32.018Z,25.70
2018-09-18T11:09:59.571Z,25.70
2018-09-18T11:12:26.999Z,25.70
2018-09-18T11:14:54.523Z,25.80
2018-09-18T11:17:21.892Z,25.90
2018-09-18T11:19:49.355Z,26.00
2018-09-18T11:22:16.872Z,26.00
2018-09-18T11:24:44.375Z,26.00
2018-09-18T11:27:11.755Z,26.20
2018-09-18T11:29:39.257Z,26.10
2018-09-18T11:32:06.691Z,26.10
2018-09-18T11:34:34.149Z,26.40
2018-09-18T11:37:01.590Z,26.50
2018-09-18T11:39:29.045Z,26.70
2018-09-18T11:41:56.489Z,26.60
2018-09-18T11:44:24.192Z,26.50
2018-09-18T11:46:51.637Z,26.60
2018-09-18T11:49:19.088Z,26.70
2018-09-18T11:51:46.522Z,26.60
2018-09-18T11:54:13.979Z,26.70
2018-09-18T11:56:41.483Z,26.80
2018-09-18T11:59:08.904Z,26.90
2018-09-18T12:01:36.364Z,26.90
2018-09-18T12:04:03.854Z,26.90
2018-09-18T12:06:31.297Z,27.20
2018-09-18T12:08:58.761Z,27.40
2018-09-18T12:11:26.249Z,27.10
2018-09-18T12:13:53.691Z,27.20
2018-09-18T12:16:21.156Z,27.30
2018-09-18T12:18:48.580Z,27.40
2018-09-18T12:21:16.076Z,27.70
2018-09-18T12:23:43.509Z,27.80
2018-09-18T12:26:10.993Z,28.00
2018-09-18T12:28:38.554Z,28.10
2018-09-18T12:31:06.018Z,28.10
2018-09-18T12:33:33.461Z,28.20
2018-09-18T12:36:00.922Z,28.30
2018-09-18T12:38:28.378Z,28.40
2018-09-18T12:40:55.841Z,28.50
2018-09-18T12:43:23.279Z,28.60
2018-09-18T12:45:50.775Z,28.70
2018-09-18T12:48:18.286Z,28.70
2018-09-18T12:50:45.794Z,28.80
2018-09-18T12:53:13.285Z,28.90
2018-09-18T12:55:40.739Z,28.90
2018-09-18T12:58:08.219Z,29.00
2018-09-18T13:00:35.709Z,29.10
2018-09-18T13:03:03.157Z,29.10
2018-09-18T13:05:30.617Z,29.00
2018-09-18T13:07:58.114Z,29.20
2018-09-18T13:10:25.546Z,29.50
2018-09-18T13:12:53.002Z,29.70
2018-09-18T13:15:20.471Z,29.90
2018-09-18T13:17:47.959Z,30.00
2018-09-18T13:20:15.493Z,30.10
2018-09-18T13:22:43.599Z,30.20
2018-09-18T13:25:11.018Z,30.10
2018-09-18T13:27:38.659Z,30.20
2018-09-18T13:30:06.725Z,30.30
2018-09-18T13:32:34.168Z,30.60
2018-09-18T13:35:01.911Z,30.80
2018-09-18T13:37:29.349Z,31.00
2018-09-18T13:39:56.827Z,30.90
2018-09-18T13:42:24.354Z,30.70
2018-09-18T13:44:51.804Z,30.90
2018-09-18T13:47:19.251Z,31.10
2018-09-18T13:49:46.768Z,31.20
2018-09-18T13:52:14.233Z,31.40
2018-09-18T13:54:41.717Z,31.40
2018-09-18T13:57:09.361Z,31.30
2018-09-18T13:59:36.915Z,31.50
2018-09-18T14:02:04.433Z,31.20
2018-09-18T14:04:31.998Z,31.50
2018-09-18T14:06:59.353Z,31.70
2018-09-18T14:09:26.908Z,31.70
2018-09-18T14:11:54.330Z,31.90
2018-09-18T14:14:21.993Z,32.40
2018-09-18T14:16:49.473Z,32.80
2018-09-18T14:19:16.941Z,32.90
2018-09-18T14:21:44.400Z,33.00
2018-09-18T14:24:11.893Z,33.00
2018-09-18T14:26:39.599Z,33.30
2018-09-18T14:29:06.958Z,34.00
2018-09-18T14:31:34.521Z,34.70
2018-09-18T14:34:01.988Z,35.50
2018-09-18T14:36:29.462Z,35.80
2018-09-18T14:38:56.885Z,35.50
2018-09-18T14:41:24.397Z,35.80
2018-09-18T14:43:51.825Z,35.20
2018-09-18T14:46:19.305Z,35.70
2018-09-18T14:48:46.863Z,36.60
2018-09-18T14:51:14.420Z,37.50
2018-09-18T14:53:41.896Z,37.60
2018-09-18T14:56:16.320Z,37.50
2018-09-18T14:58:43.810Z,37.90
2018-09-18T15:01:11.371Z,37.90
2018-09-18T15:03:38.902Z,37.50
2018-09-18T15:06:06.388Z,37.60
2018-09-18T15:08:33.862Z,37.50
2018-09-18T15:11:01.296Z,37.80
2018-09-18T15:13:28.790Z,37.90
2018-09-18T15:15:56.219Z,37.90
2018-09-18T15:18:23.651Z,37.70
2018-09-18T15:20:51.119Z,37.70
2018-09-18T15:23:18.602Z,37.60
2018-09-18T15:25:46.142Z,37.80
2018-09-18T15:28:13.596Z,37.70
2018-09-18T15:30:41.214Z,38.00
2018-09-18T15:33:08.693Z,38.20
2018-09-18T15:35:36.147Z,38.00
2018-09-18T15:38:03.636Z,37.80
2018-09-18T15:40:31.068Z,36.90
2018-09-18T15:42:58.693Z,37.40
2018-09-18T15:45:26.261Z,37.70
2018-09-18T15:47:53.764Z,37.90
2018-09-18T15:50:21.226Z,38.10
2018-09-18T15:52:48.746Z,37.50
2018-09-18T15:55:16.284Z,37.60
2018-09-18T15:57:43.699Z,37.50
2018-09-18T16:00:11.633Z,38.00
2018-09-18T16:02:39.245Z,37.90
2018-09-18T16:05:06.689Z,38.00
2018-09-18T16:07:34.126Z,37.70
2018-09-18T16:10:01.693Z,37.50
2018-09-18T16:12:29.180Z,37.40
2018-09-18T16:14:56.678Z,37.60
2018-09-18T16:17:24.117Z,37.40
2018-09-18T16:19:51.636Z,37.00
2018-09-18T16:22:19.093Z,36.90
2018-09-18T16:24:46.672Z,36.60
2018-09-18T16:27:14.517Z,36.30
2018-09-18T16:29:42.059Z,36.40
2018-09-18T16:32:09.561Z,36.60
2018-09-18T16:34:37.033Z,36.30
2018-09-18T16:37:04.520Z,35.80
2018-09-18T16:39:32.011Z,35.70
2018-09-18T16:41:59.480Z,35.20
2018-09-18T16:44:27.003Z,34.80
2018-09-18T16:46:54.543Z,34.40
2018-09-18T16:49:21.960Z,34.20
2018-09-18T16:51:49.698Z,33.80
2018-09-18T16:54:17.134Z,33.30
2018-09-18T16:56:44.627Z,32.70
2018-09-18T16:59:12.096Z,32.30
2018-09-18T17:01:39.646Z,31.80
2018-09-18T17:04:07.103Z,31.20
2018-09-18T17:06:34.619Z,30.80
2018-09-18T17:09:02.177Z,30.30
2018-09-18T17:11:29.647Z,29.80
2018-09-18T17:13:57.090Z,29.40
2018-09-18T17:16:24.642Z,29.10
2018-09-18T17:18:52.064Z,28.70
2018-09-18T17:21:19.557Z,28.50
2018-09-18T17:23:46.997Z,28.20
2018-09-18T17:26:14.505Z,28.10
2018-09-18T17:28:42.191Z,27.90
2018-09-18T17:31:09.514Z,27.70
2018-09-18T17:33:37.314Z,27.60
2018-09-18T17:36:05.337Z,27.50
2018-09-18T17:38:33.004Z,27.30
2018-09-18T17:41:01.041Z,27.00
2018-09-18T17:43:28.616Z,26.90
2018-09-18T17:45:56.053Z,26.80
2018-09-18T17:48:23.545Z,26.70
2018-09-18T17:50:50.986Z,26.60
2018-09-18T17:53:18.417Z,26.50
2018-09-18T17:55:45.913Z,26.40
2018-09-18T17:58:13.356Z,26.30
2018-09-18T18:00:40.908Z,26.20
2018-09-18T18:03:08.360Z,26.10
2018-09-18T18:05:35.863Z,26.10
2018-09-18T18:08:03.368Z,26.10
2018-09-18T18:10:30.812Z,26.00
2018-09-18T18:12:58.300Z,25.90
2018-09-18T18:15:25.883Z,25.80
2018-09-18T18:17:53.405Z,25.80
2018-09-18T18:20:20.941Z,25.70
2018-09-18T18:22:48.339Z,25.60
2018-09-18T18:25:15.822Z,25.50
2018-09-18T18:27:43.257Z,25.40
2018-09-18T18:30:10.736Z,25.50
2018-09-18T18:32:38.169Z,25.50
2018-09-18T18:35:05.664Z,25.40
2018-09-18T18:37:33.151Z,25.30
2018-09-18T18:40:01.483Z,25.30
2018-09-18T18:42:28.930Z,25.20
2018-09-18T18:44:56.369Z,25.10
2018-09-18T18:47:23.909Z,25.10
2018-09-18T18:49:51.385Z,25.00
2018-09-18T18:52:18.862Z,25.00
2018-09-18T18:54:46.364Z,25.10
2018-09-18T18:57:13.801Z,24.90
2018-09-18T18:59:41.281Z,24.80
2018-09-18T19:02:09.255Z,24.90
2018-09-18T19:04:36.740Z,24.90
2018-09-18T19:07:04.230Z,25.00
2018-09-18T19:09:31.721Z,24.90
2018-09-18T19:11:59.162Z,24.90
2018-09-18T19:14:26.639Z,24.80
2018-09-18T19:16:54.084Z,24.80
2018-09-18T19:19:21.580Z,24.80
2018-09-18T19:21:49.048Z,24.90
2018-09-18T19:24:16.489Z,24.80
2018-09-18T19:26:43.955Z,24.60
2018-09-18T19:29:11.401Z,24.60
2018-09-18T19:31:38.966Z,24.90
2018-09-18T19:34:06.528Z,24.80
2018-09-18T19:36:34.009Z,24.70
2018-09-18T19:39:01.559Z,24.60
2018-09-18T19:41:29.178Z,24.40
2018-09-18T19:43:56.612Z,24.50
2018-09-18T19:46:24.126Z,25.00
2018-09-18T19:48:51.573Z,25.00
2018-09-18T19:51:19.083Z,24.80
2018-09-18T19:53:46.625Z,25.00
2018-09-18T19:56:14.153Z,24.60
2018-09-18T19:58:41.610Z,24.40
2018-09-18T20:01:09.139Z,24.30
2018-09-18T20:03:36.612Z,24.30
2018-09-18T20:06:04.039Z,24.40
2018-09-18T20:08:31.549Z,24.50
2018-09-18T20:10:59.117Z,24.30
2018-09-18T20:13:26.599Z,24.30
2018-09-18T20:15:55.380Z,24.30
2018-09-18T20:18:22.873Z,24.10
2018-09-18T20:20:50.472Z,23.70
2018-09-18T20:23:18.012Z,23.70
2018-09-18T20:25:45.451Z,23.90
2018-09-18T20:28:13.029Z,23.80
2018-09-18T20:30:40.476Z,23.70
2018-09-18T20:33:08.048Z,23.60
2018-09-18T20:35:35.497Z,23.40
2018-09-18T20:38:03.109Z,23.40
2018-09-18T20:40:30.630Z,23.20
2018-09-18T20:42:58.225Z,23.00
2018-09-18T20:45:25.840Z,22.90
2018-09-18T20:47:53.282Z,22.80
2018-09-18T20:50:22.635Z,22.70
2018-09-18T20:52:51.225Z,22.60
2018-09-18T20:55:19.052Z,22.50
2018-09-18T20:57:46.637Z,22.30
2018-09-18T21:00:24.412Z,22.30
2018-09-18T21:02:51.961Z,22.20
2018-09-18T21:05:19.423Z,22.20
2018-09-18T21:07:46.981Z,22.40
2018-09-18T21:10:20.549Z,22.20
2018-09-18T21:12:48.033Z,22.20
2018-09-18T21:15:15.474Z,22.10
2018-09-18T21:17:42.974Z,22.00
2018-09-18T21:20:10.396Z,22.10
2018-09-18T21:22:37.910Z,22.10
2018-09-18T21:25:12.212Z,22.10
2018-09-18T21:27:40.103Z,22.00
2018-09-18T21:30:07.604Z,22.00
2018-09-18T21:32:35.251Z,21.90
2018-09-18T21:35:02.689Z,21.90
2018-09-18T21:37:30.127Z,21.90
2018-09-18T21:39:57.608Z,21.80
2018-09-18T21:42:25.110Z,21.80
2018-09-18T21:44:52.652Z,21.80
2018-09-18T21:47:20.159Z,21.70
2018-09-18T21:49:47.769Z,21.70
2018-09-18T21:52:15.304Z,21.60
2018-09-18T21:54:42.761Z,21.60
2018-09-18T21:57:10.552Z,21.60
2018-09-18T21:59:37.990Z,21.60
2018-09-18T22:02:05.469Z,21.60
2018-09-18T22:04:33.217Z,21.60
2018-09-18T22:07:00.766Z,21.60
2018-09-18T22:09:28.246Z,21.40
2018-09-18T22:11:55.696Z,21.30
2018-09-18T22:14:23.124Z,21.20
2018-09-18T22:16:50.573Z,21.10
2018-09-18T22:19:18.010Z,21.20
2018-09-18T22:21:45.469Z,21.00
2018-09-18T22:24:12.912Z,21.00
2018-09-18T22:26:40.358Z,20.80
2018-09-18T22:29:07.788Z,20.90
2018-09-18T22:31:35.242Z,20.90
2018-09-18T22:34:02.664Z,21.00
2018-09-18T22:36:30.128Z,20.90
2018-09-18T22:38:57.584Z,20.70
2018-09-18T22:41:25.037Z,20.50
2018-09-18T22:43:52.472Z,20.60
2018-09-18T22:46:19.923Z,20.50
2018-09-18T22:48:47.382Z,20.50
2018-09-18T22:51:14.840Z,20.50
2018-09-18T22:53:42.448Z,20.50
2018-09-18T22:56:10.721Z,20.60
2018-09-18T22:58:38.155Z,20.60
2018-09-18T23:01:05.672Z,20.50
2018-09-18T23:03:33.125Z,20.50
2018-09-18T23:06:00.664Z,20.50
2018-09-18T23:08:28.157Z,20.50
2018-09-18T23:10:55.595Z,20.50
2018-09-18T23:13:23.056Z,20.50
2018-09-18T23:15:50.483Z,20.50
2018-09-18T23:18:18.052Z,20.50
2018-09-18T23:20:45.755Z,20.30
2018-09-18T23:23:13.203Z,20.30
2018-09-18T23:25:40.657Z,20.20
2018-09-18T23:28:08.185Z,20.10
2018-09-18T23:30:35.606Z,20.00
2018-09-18T23:33:03.079Z,20.00
2018-09-18T23:35:30.496Z,20.00
2018-09-18T23:37:57.940Z,20.00
2018-09-18T23:40:25.381Z,19.90
2018-09-18T23:42:52.826Z,20.00
2018-09-18T23:45:20.255Z,19.90
2018-09-18T23:47:47.708Z,19.80
2018-09-18T23:50:15.133Z,19.90
2018-09-18T23:52:42.597Z,19.80
2018-09-18T23:55:10.020Z,19.60
2018-09-18T23:57:37.484Z,19.60
